createdAt,value
2022-10-17T00:01:05.880Z,8.17
2022-10-17T00:03:33.378Z,8.50
2022-10-17T00:06:00.787Z,12.30
2022-10-17T00:08:28.317Z,9.83
2022-10-17T00:11:00.393Z,9.97
2022-10-17T00:13:28.502Z,9.47
2022-10-17T00:15:58.096Z,10.60
2022-10-17T00:18:26.031Z,8.97
2022-10-17T00:20:53.686Z,9.87
2022-10-17T00:23:21.376Z,9.97
2022-10-17T00:25:48.788Z,12.27
2022-10-17T00:28:17.192Z,10.20
2022-10-17T00:30:44.591Z,10.37
2022-10-17T00:33:13.311Z,9.20
2022-10-17T00:35:40.684Z,8.27
2022-10-17T00:38:08.067Z,8.27
2022-10-17T00:40:35.445Z,8.60
2022-10-17T00:43:02.849Z,11.50
2022-10-17T00:45:32.542Z,9.37
2022-10-17T00:48:02.072Z,9.83
2022-10-17T00:50:31.082Z,12.33
2022-10-17T00:53:02.293Z,9.83
2022-10-17T00:55:32.769Z,12.00
2022-10-17T00:58:04.901Z,7.75
2022-10-17T01:00:32.440Z,9.90
2022-10-17T01:03:00.244Z,9.70
2022-10-17T01:05:27.704Z,8.30
2022-10-17T01:07:56.669Z,9.07
2022-10-17T01:10:28.491Z,7.23
2022-10-17T01:13:05.596Z,8.13
2022-10-17T01:15:57.188Z,9.80
2022-10-17T01:18:38.815Z,8.80
2022-10-17T01:21:31.134Z,8.60
2022-10-17T01:24:35.013Z,6.60
2022-10-17T01:27:28.498Z,8.30
2022-10-17T01:30:12.611Z,10.10
2022-10-17T01:32:46.660Z,6.67
2022-10-17T01:35:21.064Z,6.63
2022-10-17T01:37:55.599Z,7.60
2022-10-17T01:40:29.080Z,7.13
2022-10-17T01:43:00.367Z,9.87
2022-10-17T01:45:33.576Z,8.27
2022-10-17T01:48:08.101Z,8.30
2022-10-17T01:50:39.971Z,7.50
2022-10-17T01:53:12.645Z,6.63
2022-10-17T01:55:42.932Z,9.30
2022-10-17T01:58:14.313Z,6.50
2022-10-17T02:00:44.332Z,5.33
2022-10-17T02:03:17.717Z,6.57
2022-10-17T02:05:45.536Z,6.03
2022-10-17T02:08:13.464Z,5.90
2022-10-17T02:10:47.392Z,6.53
2022-10-17T02:13:21.734Z,5.90
2022-10-17T02:16:04.684Z,5.70
2022-10-17T02:18:48.008Z,6.37
2022-10-17T02:21:22.125Z,6.40
2022-10-17T02:23:57.217Z,7.70
2022-10-17T02:26:29.339Z,6.27
2022-10-17T02:29:08.070Z,5.80
2022-10-17T02:31:39.559Z,6.23
2022-10-17T02:34:14.014Z,6.70
2022-10-17T02:36:47.355Z,6.07
2022-10-17T02:39:16.955Z,6.07
2022-10-17T02:41:46.365Z,6.17
2022-10-17T02:44:13.747Z,6.10
2022-10-17T02:46:43.773Z,6.53
2022-10-17T02:49:19.481Z,7.07
2022-10-17T02:51:53.592Z,6.43
2022-10-17T02:54:25.952Z,6.20
2022-10-17T02:56:57.422Z,6.83
2022-10-17T02:59:27.424Z,6.40
2022-10-17T03:01:55.450Z,6.10
2022-10-17T03:04:24.153Z,5.53
2022-10-17T03:06:51.568Z,5.73
2022-10-17T03:09:18.925Z,5.63
2022-10-17T03:11:46.311Z,7.10
2022-10-17T03:14:13.695Z,7.17
2022-10-17T03:16:41.079Z,6.53
2022-10-17T03:19:08.795Z,6.90
2022-10-17T03:21:38.118Z,6.20
2022-10-17T03:24:06.292Z,6.23
2022-10-17T03:26:33.696Z,6.53
2022-10-17T03:29:01.105Z,6.73
2022-10-17T03:31:28.515Z,6.17
2022-10-17T03:33:55.872Z,7.03
2022-10-17T03:36:23.263Z,7.00
2022-10-17T03:38:54.369Z,8.80
2022-10-17T03:41:21.785Z,8.80
2022-10-17T03:43:49.200Z,8.40
2022-10-17T03:48:48.915Z,6.80
2022-10-17T03:51:16.382Z,7.30
2022-10-17T03:53:43.953Z,7.80
2022-10-17T03:56:14.777Z,7.97
2022-10-17T03:58:42.533Z,7.70
2022-10-17T04:01:12.480Z,6.33
2022-10-17T04:03:40.021Z,9.73
2022-10-17T04:06:08.106Z,7.33
2022-10-17T04:08:35.739Z,7.90
2022-10-17T04:11:05.057Z,7.87
2022-10-17T04:13:34.483Z,7.07
2022-10-17T04:16:03.242Z,7.10
2022-10-17T04:18:30.635Z,7.40
2022-10-17T04:20:58.349Z,7.73
2022-10-17T04:23:26.554Z,6.90
2022-10-17T04:25:56.941Z,7.77
2022-10-17T04:28:24.735Z,7.70
2022-10-17T04:30:58.588Z,7.37
2022-10-17T04:33:26.118Z,7.33
2022-10-17T04:35:57.715Z,8.43
2022-10-17T04:38:28.438Z,7.83
2022-10-17T04:40:58.306Z,7.50
2022-10-17T04:43:26.377Z,7.40
2022-10-17T04:45:53.748Z,7.67
2022-10-17T04:48:22.592Z,7.93
2022-10-17T04:50:56.616Z,9.57
2022-10-17T04:53:25.118Z,7.40
2022-10-17T04:55:52.659Z,8.00
2022-10-17T04:58:20.255Z,7.97
2022-10-17T05:00:47.907Z,7.73
2022-10-17T05:03:15.950Z,8.87
2022-10-17T05:05:44.715Z,8.30
2022-10-17T05:08:13.044Z,8.43
2022-10-17T05:10:42.438Z,7.47
2022-10-17T05:13:10.973Z,7.67
2022-10-17T05:15:39.431Z,8.10
2022-10-17T05:18:07.777Z,7.97
2022-10-17T05:20:35.169Z,8.47
2022-10-17T05:23:04.028Z,8.93
2022-10-17T05:25:31.402Z,9.00
2022-10-17T05:27:58.771Z,8.37
2022-10-17T05:30:26.153Z,8.30
2022-10-17T05:32:54.780Z,8.07
2022-10-17T05:35:22.769Z,10.67
2022-10-17T05:37:50.217Z,8.77
2022-10-17T05:40:19.111Z,10.43
2022-10-17T05:42:48.253Z,9.00
2022-10-17T05:45:15.994Z,8.40
2022-10-17T05:47:43.448Z,7.73
2022-10-17T05:50:11.176Z,10.40
2022-10-17T05:52:38.673Z,9.57
2022-10-17T05:55:07.683Z,8.17
2022-10-17T05:57:36.703Z,8.70
2022-10-17T06:00:05.041Z,8.20
2022-10-17T06:02:33.239Z,8.13
2022-10-17T06:05:01.006Z,7.50
2022-10-17T06:07:28.497Z,7.50
2022-10-17T06:09:55.861Z,7.67
2022-10-17T06:12:23.287Z,9.47
2022-10-17T06:14:52.108Z,7.93
2022-10-17T06:17:19.494Z,8.00
2022-10-17T06:19:47.068Z,10.77
2022-10-17T06:22:14.985Z,8.93
2022-10-17T06:24:43.232Z,8.97
2022-10-17T06:27:11.880Z,8.57
2022-10-17T06:29:39.636Z,7.57
2022-10-17T06:32:11.114Z,8.97
2022-10-17T06:34:41.711Z,8.83
2022-10-17T06:37:09.091Z,8.30
2022-10-17T06:39:37.010Z,7.17
2022-10-17T06:42:05.077Z,7.23
2022-10-17T06:44:32.485Z,9.67
2022-10-17T06:47:00.808Z,7.87
2022-10-17T06:49:29.825Z,8.37
2022-10-17T06:51:57.281Z,9.40
2022-10-17T06:54:24.666Z,8.67
2022-10-17T06:56:52.054Z,9.70
2022-10-17T06:59:19.442Z,7.77
2022-10-17T07:01:47.332Z,7.27
2022-10-17T07:04:14.977Z,7.17
2022-10-17T07:06:43.717Z,8.67
2022-10-17T07:09:11.168Z,7.37
2022-10-17T07:11:40.112Z,7.63
2022-10-17T07:14:07.575Z,10.43
2022-10-17T07:16:35.174Z,7.30
2022-10-17T07:19:03.029Z,7.43
2022-10-17T07:21:33.036Z,8.73
2022-10-17T07:24:04.289Z,6.17
2022-10-17T07:26:31.718Z,8.80
2022-10-17T07:28:59.146Z,8.27
2022-10-17T07:31:26.745Z,7.10
2022-10-17T07:33:54.149Z,7.10
2022-10-17T07:36:21.521Z,6.77
2022-10-17T07:38:48.883Z,7.23
2022-10-17T07:41:21.677Z,10.93
2022-10-17T07:43:49.436Z,6.33
2022-10-17T07:46:16.817Z,11.37
2022-10-17T07:48:44.182Z,7.20
2022-10-17T07:51:11.844Z,10.93
2022-10-17T07:53:42.688Z,14.10
2022-10-17T07:56:12.968Z,10.23
2022-10-17T07:58:41.696Z,6.33
2022-10-17T08:01:15.486Z,7.93
2022-10-17T08:03:45.245Z,6.47
2022-10-17T08:06:13.672Z,6.30
2022-10-17T08:08:41.681Z,6.33
2022-10-17T08:11:12.514Z,6.27
2022-10-17T08:13:42.215Z,5.77
2022-10-17T08:16:13.143Z,17.80
2022-10-17T08:18:43.310Z,35.27
2022-10-17T08:21:12.987Z,56.67
2022-10-17T08:23:40.742Z,42.83
2022-10-17T08:26:10.977Z,23.97
2022-10-17T08:28:39.974Z,36.43
2022-10-17T08:31:11.163Z,29.17
2022-10-17T08:33:38.905Z,19.57
2022-10-17T08:36:07.386Z,19.53
2022-10-17T08:38:36.899Z,18.83
2022-10-17T08:41:12.770Z,17.13
2022-10-17T08:43:52.365Z,24.53
2022-10-17T08:46:21.748Z,15.43
2022-10-17T08:48:52.238Z,7.47
2022-10-17T08:51:25.362Z,24.33
2022-10-17T08:54:00.520Z,11.37
2022-10-17T08:56:47.919Z,6.23
2022-10-17T08:59:19.814Z,20.47
2022-10-17T09:01:55.645Z,17.60
2022-10-17T09:04:41.248Z,16.23
2022-10-17T09:07:19.268Z,13.50
2022-10-17T09:09:56.289Z,14.33
2022-10-17T09:12:28.152Z,7.63
2022-10-17T09:15:07.209Z,12.17
2022-10-17T09:17:44.040Z,5.13
2022-10-17T09:20:16.868Z,6.77
2022-10-17T09:22:51.888Z,4.43
2022-10-17T09:25:21.653Z,6.17
2022-10-17T09:27:52.337Z,7.47
2022-10-17T09:30:51.030Z,5.27
2022-10-17T09:33:34.595Z,5.13
2022-10-17T09:36:09.252Z,4.77
2022-10-17T09:38:42.256Z,10.03
2022-10-17T09:41:43.455Z,4.97
2022-10-17T09:44:17.076Z,8.17
2022-10-17T09:46:53.134Z,5.13
2022-10-17T09:49:32.472Z,6.20
2022-10-17T09:52:01.474Z,5.17
2022-10-17T09:54:34.922Z,6.83
2022-10-17T09:57:04.452Z,7.53
2022-10-17T09:59:36.370Z,7.57
2022-10-17T10:02:17.070Z,6.33
2022-10-17T10:05:04.727Z,5.97
2022-10-17T10:07:35.249Z,5.90
2022-10-17T10:10:05.487Z,5.30
2022-10-17T10:12:35.391Z,7.45
2022-10-17T10:15:03.087Z,7.57
2022-10-17T10:17:37.471Z,6.15
2022-10-17T10:20:32.840Z,4.50
2022-10-17T10:23:14.475Z,5.00
2022-10-17T10:25:55.525Z,8.73
2022-10-17T10:28:27.238Z,6.93
2022-10-17T10:30:56.753Z,5.88
2022-10-17T10:33:28.230Z,4.40
2022-10-17T10:36:01.282Z,5.43
2022-10-17T10:38:30.034Z,6.30
2022-10-17T10:41:02.526Z,5.95
2022-10-17T10:43:35.617Z,9.10
2022-10-17T10:46:06.286Z,5.80
2022-10-17T10:48:36.455Z,5.82
2022-10-17T10:51:08.936Z,4.40
2022-10-17T10:53:46.599Z,5.68
2022-10-17T10:56:19.295Z,5.20
2022-10-17T10:58:52.668Z,4.80
2022-10-17T11:01:26.495Z,5.88
2022-10-17T11:04:06.987Z,6.55
2022-10-17T11:06:38.075Z,6.05
2022-10-17T11:09:24.040Z,7.03
2022-10-17T11:11:59.008Z,4.35
2022-10-17T11:14:40.664Z,4.60
2022-10-17T11:17:17.268Z,5.20
2022-10-17T11:19:52.677Z,5.05
2022-10-17T11:22:29.368Z,5.35
2022-10-17T11:25:00.995Z,7.78
2022-10-17T11:27:30.435Z,4.93
2022-10-17T11:29:59.344Z,5.03
2022-10-17T11:32:32.752Z,4.60
2022-10-17T11:35:06.591Z,3.42
2022-10-17T11:37:40.924Z,5.82
2022-10-17T11:40:19.281Z,5.10
2022-10-17T11:42:55.793Z,3.45
2022-10-17T11:45:27.247Z,3.45
2022-10-17T11:47:58.264Z,4.72
2022-10-17T11:53:20.156Z,6.55
2022-10-17T11:55:48.703Z,4.13
2022-10-17T12:01:14.414Z,3.78
2022-10-17T12:03:53.590Z,4.70
2022-10-17T12:06:36.218Z,5.63
2022-10-17T12:09:12.736Z,4.93
2022-10-17T12:11:50.766Z,8.90
2022-10-17T12:14:42.478Z,4.93
2022-10-17T12:17:28.943Z,7.55
2022-10-17T12:20:28.321Z,4.85
2022-10-17T12:22:57.287Z,7.47
2022-10-17T12:25:29.945Z,5.95
2022-10-17T12:28:14.999Z,3.63
2022-10-17T12:30:55.017Z,6.78
2022-10-17T12:33:31.861Z,4.25
2022-10-17T12:36:47.834Z,5.88
2022-10-17T12:39:52.243Z,4.75
2022-10-17T12:42:50.269Z,3.38
2022-10-17T12:45:46.950Z,5.28
2022-10-17T12:48:14.531Z,5.28
2022-10-17T12:51:34.184Z,6.05
2022-10-17T12:53:59.487Z,5.50
2022-10-17T12:56:37.490Z,4.65
2022-10-17T12:59:13.433Z,13.00
2022-10-17T13:01:44.825Z,28.02
2022-10-17T13:04:12.584Z,24.20
2022-10-17T13:06:46.636Z,8.45
2022-10-17T13:09:23.877Z,8.18
2022-10-17T13:11:51.977Z,6.68
2022-10-17T13:14:23.815Z,6.40
2022-10-17T13:16:54.118Z,6.30
2022-10-17T13:19:24.161Z,4.45
2022-10-17T13:21:53.351Z,5.55
2022-10-17T13:24:22.039Z,8.90
2022-10-17T13:26:49.511Z,6.95
2022-10-17T13:29:18.138Z,5.10
2022-10-17T13:31:53.425Z,4.75
2022-10-17T13:34:23.148Z,6.43
2022-10-17T13:36:54.054Z,3.00
2022-10-17T13:42:26.661Z,4.57
2022-10-17T13:44:54.579Z,3.53
2022-10-17T13:47:25.803Z,4.88
2022-10-17T13:49:55.525Z,4.70
2022-10-17T13:52:27.047Z,4.40
2022-10-17T13:54:55.511Z,5.45
2022-10-17T13:57:26.112Z,6.50
2022-10-17T13:59:57.105Z,5.60
2022-10-17T14:02:27.685Z,8.20
2022-10-17T14:05:16.864Z,8.52
2022-10-17T14:08:10.578Z,9.07
2022-10-17T14:10:40.945Z,3.42
2022-10-17T14:13:19.814Z,3.35
2022-10-17T14:15:47.833Z,4.45
2022-10-17T14:18:21.847Z,7.40
2022-10-17T14:21:33.994Z,5.22
2022-10-17T14:23:40.432Z,6.35
2022-10-17T14:26:11.481Z,3.90
2022-10-17T14:28:39.887Z,3.90
2022-10-17T14:31:15.040Z,4.10
2022-10-17T14:33:50.630Z,8.70
2022-10-17T14:36:20.222Z,7.07
2022-10-17T14:38:49.346Z,5.90
2022-10-17T14:41:42.009Z,5.97
2022-10-17T14:44:20.353Z,5.30
2022-10-17T14:46:51.118Z,5.15
2022-10-17T14:49:26.102Z,9.60
2022-10-17T14:52:21.249Z,9.63
2022-10-17T14:54:50.297Z,7.90
2022-10-17T14:57:20.140Z,11.20
2022-10-17T14:59:55.561Z,8.68
2022-10-17T15:02:23.411Z,6.72
2022-10-17T15:04:52.721Z,5.95
2022-10-17T15:07:21.357Z,6.97
2022-10-17T15:09:50.584Z,14.38
2022-10-17T15:12:20.204Z,7.97
2022-10-17T15:14:48.809Z,5.35
2022-10-17T15:17:18.485Z,4.05
2022-10-17T15:19:46.134Z,5.43
2022-10-17T15:22:16.075Z,6.93
2022-10-17T15:24:45.817Z,5.68
2022-10-17T15:27:16.901Z,7.00
2022-10-17T15:29:44.723Z,8.13
2022-10-17T15:32:12.264Z,7.40
2022-10-17T15:34:39.948Z,6.30
2022-10-17T15:37:15.414Z,7.20
2022-10-17T15:39:45.236Z,8.23
2022-10-17T15:42:13.083Z,8.10
2022-10-17T15:44:43.963Z,12.55
2022-10-17T15:47:23.189Z,8.82
2022-10-17T15:49:50.609Z,8.32
2022-10-17T15:52:19.641Z,11.00
2022-10-17T15:54:48.328Z,6.18
2022-10-17T15:57:19.138Z,8.30
2022-10-17T15:59:47.811Z,7.60
2022-10-17T16:02:16.545Z,10.70
2022-10-17T16:04:44.743Z,11.05
2022-10-17T16:07:12.292Z,8.85
2022-10-17T16:09:40.062Z,10.60
2022-10-17T16:12:15.514Z,8.70
2022-10-17T16:14:42.954Z,9.68
2022-10-17T16:17:13.700Z,8.75
2022-10-17T16:19:41.080Z,9.65
2022-10-17T16:22:17.591Z,6.88
2022-10-17T16:24:45.026Z,7.20
2022-10-17T16:27:13.763Z,7.68
2022-10-17T16:29:41.155Z,11.02
2022-10-17T16:32:10.126Z,9.23
2022-10-17T16:34:37.582Z,7.40
2022-10-17T16:37:05.084Z,6.93
2022-10-17T16:39:32.454Z,6.88
2022-10-17T16:41:59.901Z,9.38
2022-10-17T16:44:28.622Z,6.55
2022-10-17T16:46:56.044Z,11.65
2022-10-17T16:49:23.417Z,10.13
2022-10-17T16:51:50.819Z,8.88
2022-10-17T16:54:18.472Z,5.93
2022-10-17T16:56:45.905Z,7.75
2022-10-17T16:59:13.291Z,5.22
2022-10-17T17:01:42.093Z,7.88
2022-10-17T17:04:09.792Z,10.68
2022-10-17T17:06:38.407Z,8.40
2022-10-17T17:09:05.835Z,10.68
2022-10-17T17:11:33.333Z,8.57
2022-10-17T17:14:01.693Z,6.07
2022-10-17T17:16:31.035Z,7.90
2022-10-17T17:19:01.808Z,7.32
2022-10-17T17:21:29.504Z,7.30
2022-10-17T17:23:58.579Z,8.10
2022-10-17T17:26:28.107Z,8.23
2022-10-17T17:28:57.989Z,14.48
2022-10-17T17:31:27.161Z,10.75
2022-10-17T17:36:32.251Z,8.82
2022-10-17T17:39:01.812Z,13.13
2022-10-17T17:41:29.707Z,7.70
2022-10-17T17:43:57.683Z,10.35
2022-10-17T17:46:27.867Z,10.45
2022-10-17T17:48:56.231Z,10.23
2022-10-17T17:51:29.488Z,7.40
2022-10-17T17:53:58.413Z,8.02
2022-10-17T17:56:29.436Z,7.20
2022-10-17T17:59:00.054Z,8.02
2022-10-17T18:01:29.950Z,7.22
2022-10-17T18:03:59.671Z,5.30
2022-10-17T18:06:28.374Z,8.98
2022-10-17T18:09:01.442Z,7.82
2022-10-17T18:11:29.603Z,11.10
2022-10-17T18:13:58.359Z,12.07
2022-10-17T18:16:27.156Z,7.97
2022-10-17T18:18:54.573Z,8.30
2022-10-17T18:21:22.040Z,9.20
2022-10-17T18:23:51.834Z,12.25
2022-10-17T18:26:20.736Z,15.52
2022-10-17T18:28:49.599Z,10.27
2022-10-17T18:31:23.921Z,11.87
2022-10-17T18:33:52.559Z,8.15
2022-10-17T18:36:20.975Z,8.73
2022-10-17T18:38:48.791Z,15.70
2022-10-17T18:41:17.422Z,7.15
2022-10-17T18:43:47.992Z,6.47
2022-10-17T18:46:19.037Z,12.63
2022-10-17T18:48:47.825Z,7.93
2022-10-17T18:51:17.450Z,14.03
2022-10-17T18:53:47.297Z,7.47
2022-10-17T18:56:15.289Z,10.77
2022-10-17T18:58:43.336Z,23.17
2022-10-17T19:01:15.359Z,17.17
2022-10-17T19:03:43.796Z,17.30
2022-10-17T19:06:12.843Z,13.07
2022-10-17T19:08:40.975Z,13.70
2022-10-17T19:11:13.670Z,13.87
2022-10-17T19:13:41.865Z,12.87
2022-10-17T19:16:11.063Z,12.55
2022-10-17T19:18:40.159Z,11.37
2022-10-17T19:21:09.228Z,13.27
2022-10-17T19:23:38.143Z,13.65
2022-10-17T19:26:06.813Z,15.13
2022-10-17T19:28:35.029Z,14.20
2022-10-17T19:31:02.494Z,12.57
2022-10-17T19:33:29.915Z,14.53
2022-10-17T19:36:00.829Z,16.53
2022-10-17T19:38:28.549Z,12.43
2022-10-17T19:40:56.026Z,12.10
2022-10-17T19:43:23.761Z,11.43
2022-10-17T19:45:55.793Z,13.53
2022-10-17T19:48:23.273Z,11.50
2022-10-17T19:50:51.170Z,14.27
2022-10-17T19:53:20.646Z,11.80
2022-10-17T19:55:47.984Z,17.70
2022-10-17T19:58:15.421Z,13.00
2022-10-17T20:00:47.217Z,12.40
2022-10-17T20:03:14.709Z,11.20
2022-10-17T20:05:42.140Z,12.47
2022-10-17T20:08:09.544Z,10.87
2022-10-17T20:10:38.277Z,12.17
2022-10-17T20:13:05.803Z,14.67
2022-10-17T20:15:33.404Z,14.70
2022-10-17T20:18:01.331Z,13.93
2022-10-17T20:20:29.793Z,11.63
2022-10-17T20:22:57.307Z,13.57
2022-10-17T20:25:24.760Z,12.20
2022-10-17T20:27:53.748Z,9.90
2022-10-17T20:30:25.424Z,9.57
2022-10-17T20:32:55.642Z,12.00
2022-10-17T20:35:24.556Z,14.27
2022-10-17T20:37:53.567Z,10.80
2022-10-17T20:40:37.146Z,10.77
2022-10-17T20:43:11.146Z,13.50
2022-10-17T20:45:51.493Z,12.73
2022-10-17T20:48:25.809Z,11.07
2022-10-17T20:50:55.275Z,11.50
2022-10-17T20:53:38.205Z,11.57
2022-10-17T20:56:07.578Z,10.77
2022-10-17T20:58:36.925Z,15.93
2022-10-17T21:01:09.045Z,12.30
2022-10-17T21:03:42.442Z,10.93
2022-10-17T21:06:13.675Z,11.20
2022-10-17T21:08:41.301Z,12.07
2022-10-17T21:11:11.053Z,11.63
2022-10-17T21:13:40.687Z,10.30
2022-10-17T21:16:10.324Z,15.50
2022-10-17T21:18:38.177Z,14.57
2022-10-17T21:21:14.588Z,10.07
2022-10-17T21:23:50.682Z,13.27
2022-10-17T21:26:19.111Z,12.07
2022-10-17T21:28:49.791Z,14.40
2022-10-17T21:31:19.463Z,7.10
2022-10-17T21:33:48.972Z,7.80
2022-10-17T21:36:17.659Z,8.43
2022-10-17T21:38:46.409Z,7.43
2022-10-17T21:41:15.564Z,7.63
2022-10-17T21:43:43.890Z,9.47
2022-10-17T21:46:15.920Z,10.67
2022-10-17T21:48:43.816Z,9.20
2022-10-17T21:51:14.507Z,8.77
2022-10-17T21:53:42.519Z,11.60
2022-10-17T21:56:15.261Z,8.87
2022-10-17T21:58:43.422Z,12.77
2022-10-17T22:01:17.540Z,11.03
2022-10-17T22:03:47.114Z,11.53
2022-10-17T22:06:38.605Z,10.73
2022-10-17T22:09:09.378Z,11.00
2022-10-17T22:11:37.142Z,21.53
2022-10-17T22:14:06.521Z,41.80
2022-10-17T22:16:35.745Z,17.90
2022-10-17T22:19:06.403Z,15.20
2022-10-17T22:21:35.629Z,23.97
2022-10-17T22:24:05.978Z,13.90
2022-10-17T22:26:35.552Z,11.87
2022-10-17T22:29:04.345Z,16.60
2022-10-17T22:31:31.891Z,18.50
2022-10-17T22:34:00.645Z,12.27
2022-10-17T22:36:28.062Z,15.13
2022-10-17T22:38:55.733Z,12.47
2022-10-17T22:41:23.412Z,12.80
2022-10-17T22:43:50.857Z,12.97
2022-10-17T22:46:18.543Z,14.97
2022-10-17T22:48:45.973Z,11.67
2022-10-17T22:51:15.229Z,11.90
2022-10-17T22:53:44.820Z,10.53
2022-10-17T22:56:14.482Z,8.73
2022-10-17T22:58:42.259Z,11.63
2022-10-17T23:01:13.956Z,8.23
2022-10-17T23:03:41.548Z,8.27
2022-10-17T23:06:08.949Z,10.07
2022-10-17T23:08:38.244Z,11.27
2022-10-17T23:11:06.153Z,10.23
2022-10-17T23:13:33.564Z,11.17
2022-10-17T23:16:01.036Z,7.97
2022-10-17T23:18:28.493Z,8.63
2022-10-17T23:20:56.400Z,9.30
2022-10-17T23:23:24.248Z,10.97
2022-10-17T23:25:53.642Z,9.03
2022-10-17T23:28:21.186Z,9.07
2022-10-17T23:30:48.576Z,9.13
2022-10-17T23:33:15.961Z,9.40
2022-10-17T23:35:43.488Z,10.20
2022-10-17T23:38:11.245Z,7.80
2022-10-17T23:40:38.732Z,11.37
2022-10-17T23:43:07.483Z,10.33
2022-10-17T23:45:37.165Z,8.80
2022-10-17T23:48:05.493Z,9.10
2022-10-17T23:50:32.907Z,10.53
2022-10-17T23:53:00.306Z,7.93
2022-10-17T23:55:27.738Z,8.63
2022-10-17T23:57:55.140Z,8.23
